sensor_id;sensor_type;location;lat;lon;timestamp;pressure;altitude;pressure_sealevel;temperature;humidity
77165;BME280;66140;50.280;18.660;2022-12-20T05:00:28;99908.75;;;-0.64;80.52
77165;BME280;66140;50.280;18.660;2022-12-20T05:02:54;99893.16;;;-0.68;80.40
77165;BME280;66140;50.280;18.660;2022-12-20T05:05:19;99888.84;;;-0.71;80.69
77165;BME280;66140;50.280;18.660;2022-12-20T05:07:45;99907.00;;;-0.59;80.56
77165;BME280;66140;50.280;18.660;2022-12-20T05:10:10;99894.06;;;-0.71;80.99
77165;BME280;66140;50.280;18.660;2022-12-20T05:12:36;99907.00;;;-0.60;80.84
77165;BME280;66140;50.280;18.660;2022-12-20T05:15:01;99882.78;;;-0.76;80.97
77165;BME280;66140;50.280;18.660;2022-12-20T05:17:26;99918.34;;;-0.64;80.82
77165;BME280;66140;50.280;18.660;2022-12-20T05:19:52;99887.16;;;-0.79;80.68
77165;BME280;66140;50.280;18.660;2022-12-20T05:22:17;99894.97;;;-0.81;81.27
77165;BME280;66140;50.280;18.660;2022-12-20T05:25:01;99909.63;;;-0.63;80.38
77165;BME280;66140;50.280;18.660;2022-12-20T05:27:45;99914.00;;;-0.67;80.77
77165;BME280;66140;50.280;18.660;2022-12-20T05:30:11;99919.25;;;-0.73;81.25
77165;BME280;66140;50.280;18.660;2022-12-20T05:32:37;99893.28;;;-0.87;81.23
77165;BME280;66140;50.280;18.660;2022-12-20T05:35:02;99921.84;;;-0.76;81.36
77165;BME280;66140;50.280;18.660;2022-12-20T05:37:28;99905.41;;;-0.84;80.40
77165;BME280;66140;50.280;18.660;2022-12-20T05:39:53;99894.97;;;-0.83;80.51
77165;BME280;66140;50.280;18.660;2022-12-20T05:42:18;99901.06;;;-0.81;81.17
77165;BME280;66140;50.280;18.660;2022-12-20T05:44:44;99911.41;;;-0.70;81.36
77165;BME280;66140;50.280;18.660;2022-12-20T05:47:10;99898.41;;;-0.76;81.02
77165;BME280;66140;50.280;18.660;2022-12-20T05:49:35;99902.72;;;-0.69;80.37
77165;BME280;66140;50.280;18.660;2022-12-20T05:52:01;99881.94;;;-0.81;80.88
77165;BME280;66140;50.280;18.660;2022-12-20T05:54:26;99873.34;;;-0.92;81.11
77165;BME280;66140;50.280;18.660;2022-12-20T05:56:52;99902.75;;;-0.72;81.27
77165;BME280;66140;50.280;18.660;2022-12-20T05:59:17;99887.13;;;-0.73;80.70
77165;BME280;66140;50.280;18.660;2022-12-20T06:02:02;99894.94;;;-0.75;81.66
77165;BME280;66140;50.280;18.660;2022-12-20T06:04:27;99899.31;;;-0.80;82.01
77165;BME280;66140;50.280;18.660;2022-12-20T06:06:52;99906.25;;;-0.77;81.21
77165;BME280;66140;50.280;18.660;2022-12-20T06:09:18;99906.25;;;-0.81;81.92
77165;BME280;66140;50.280;18.660;2022-12-20T06:11:43;99907.13;;;-0.83;81.71
77165;BME280;66140;50.280;18.660;2022-12-20T06:14:09;99913.25;;;-0.84;81.73
77165;BME280;66140;50.280;18.660;2022-12-20T06:16:34;99896.78;;;-0.91;82.43
77165;BME280;66140;50.280;18.660;2022-12-20T06:19:00;99895.91;;;-0.91;81.92
77165;BME280;66140;50.280;18.660;2022-12-20T06:21:26;99904.53;;;-0.83;81.88
77165;BME280;66140;50.280;18.660;2022-12-20T06:23:53;99902.78;;;-0.81;81.94
77165;BME280;66140;50.280;18.660;2022-12-20T06:26:19;99892.31;;;-0.75;81.76
77165;BME280;66140;50.280;18.660;2022-12-20T06:28:47;99865.44;;;-0.82;81.66
77165;BME280;66140;50.280;18.660;2022-12-20T06:31:16;99880.16;;;-0.74;82.12
77165;BME280;66140;50.280;18.660;2022-12-20T06:33:44;99855.06;;;-0.89;81.94
77165;BME280;66140;50.280;18.660;2022-12-20T06:36:09;99861.19;;;-0.90;81.55
77165;BME280;66140;50.280;18.660;2022-12-20T06:38:35;99894.06;;;-0.75;81.00
77165;BME280;66140;50.280;18.660;2022-12-20T06:41:00;99902.72;;;-0.69;81.17
77165;BME280;66140;50.280;18.660;2022-12-20T06:43:26;99892.28;;;-0.69;81.25
77165;BME280;66140;50.280;18.660;2022-12-20T06:45:51;99881.06;;;-0.77;81.81
77165;BME280;66140;50.280;18.660;2022-12-20T06:48:17;99881.88;;;-0.67;81.20
77165;BME280;66140;50.280;18.660;2022-12-20T06:50:42;99907.91;;;-0.64;81.15
77165;BME280;66140;50.280;18.660;2022-12-20T06:53:08;99908.78;;;-0.70;81.98
77165;BME280;66140;50.280;18.660;2022-12-20T06:55:33;99909.69;;;-0.75;81.66
77165;BME280;66140;50.280;18.660;2022-12-20T06:57:59;99908.88;;;-0.77;81.49
77165;BME280;66140;50.280;18.660;2022-12-20T07:00:24;99918.34;;;-0.66;81.19
77165;BME280;66140;50.280;18.660;2022-12-20T07:02:49;99912.34;;;-0.77;81.43
77165;BME280;66140;50.280;18.660;2022-12-20T07:05:15;99897.50;;;-0.70;81.92
77165;BME280;66140;50.280;18.660;2022-12-20T07:07:41;99900.94;;;-0.58;80.97
77165;BME280;66140;50.280;18.660;2022-12-20T07:10:07;99926.97;;;-0.52;80.81
77165;BME280;66140;50.280;18.660;2022-12-20T07:12:32;99892.25;;;-0.61;80.74
77165;BME280;66140;50.280;18.660;2022-12-20T07:14:58;99900.06;;;-0.63;80.46
77165;BME280;66140;50.280;18.660;2022-12-20T07:17:24;99893.13;;;-0.58;80.51
77165;BME280;66140;50.280;18.660;2022-12-20T07:19:52;99911.28;;;-0.49;80.99
77165;BME280;66140;50.280;18.660;2022-12-20T07:22:17;99902.59;;;-0.51;80.43
77165;BME280;66140;50.280;18.660;2022-12-20T07:24:43;99893.94;;;-0.53;80.18
77165;BME280;66140;50.280;18.660;2022-12-20T07:27:09;99899.06;;;-0.41;80.26
77165;BME280;66140;50.280;18.660;2022-12-20T07:29:35;99894.78;;;-0.49;80.25
77165;BME280;66140;50.280;18.660;2022-12-20T07:32:04;99912.88;;;-0.26;80.57
77165;BME280;66140;50.280;18.660;2022-12-20T07:34:30;99886.84;;;-0.32;80.10
77165;BME280;66140;50.280;18.660;2022-12-20T07:36:55;99879.91;;;-0.38;80.21
77165;BME280;66140;50.280;18.660;2022-12-20T07:39:21;99892.03;;;-0.26;80.12
77165;BME280;66140;50.280;18.660;2022-12-20T07:41:46;99885.91;;;-0.25;78.74
77165;BME280;66140;50.280;18.660;2022-12-20T07:44:11;99905.75;;;-0.06;79.90
77165;BME280;66140;50.280;18.660;2022-12-20T07:46:37;99872.91;;;-0.27;79.50
77165;BME280;66140;50.280;18.660;2022-12-20T07:49:02;99900.50;;;-0.03;78.99
77165;BME280;66140;50.280;18.660;2022-12-20T07:51:42;99892.75;;;-0.09;78.84
77165;BME280;66140;50.280;18.660;2022-12-20T07:54:17;99871.00;;;-0.10;78.79
77165;BME280;66140;50.280;18.660;2022-12-20T07:56:46;99895.28;;;0.00;78.74
77165;BME280;66140;50.280;18.660;2022-12-20T07:59:15;99889.25;;;-0.10;79.21
77165;BME280;66140;50.280;18.660;2022-12-20T08:01:44;99870.16;;;-0.12;78.80
77165;BME280;66140;50.280;18.660;2022-12-20T08:04:14;99897.84;;;0.06;78.43
77165;BME280;66140;50.280;18.660;2022-12-20T08:06:41;99903.06;;;0.03;79.13
77165;BME280;66140;50.280;18.660;2022-12-20T08:09:08;99903.88;;;0.13;78.59
77165;BME280;66140;50.280;18.660;2022-12-20T08:11:37;99895.19;;;0.12;78.93
77165;BME280;66140;50.280;18.660;2022-12-20T08:14:05;99896.88;;;0.16;78.41
77165;BME280;66140;50.280;18.660;2022-12-20T08:16:32;99898.53;;;0.23;78.45
77165;BME280;66140;50.280;18.660;2022-12-20T08:18:58;99873.38;;;0.13;78.56
77165;BME280;66140;50.280;18.660;2022-12-20T08:21:23;99866.41;;;0.18;78.22
77165;BME280;66140;50.280;18.660;2022-12-20T08:23:49;99875.88;;;0.28;77.30
77165;BME280;66140;50.280;18.660;2022-12-20T08:26:14;99870.56;;;0.37;77.06
77165;BME280;66140;50.280;18.660;2022-12-20T08:28:40;99875.59;;;0.53;76.78
77165;BME280;66140;50.280;18.660;2022-12-20T08:31:07;99897.16;;;0.71;76.40
77165;BME280;66140;50.280;18.660;2022-12-20T08:33:34;99884.06;;;0.73;76.51
77165;BME280;66140;50.280;18.660;2022-12-20T08:36:02;99896.22;;;0.77;75.39
77165;BME280;66140;50.280;18.660;2022-12-20T08:38:28;99908.38;;;0.78;76.88
77165;BME280;66140;50.280;18.660;2022-12-20T08:40:55;99896.19;;;0.80;76.50
77165;BME280;66140;50.280;18.660;2022-12-20T08:43:21;99897.00;;;0.84;75.55
77165;BME280;66140;50.280;18.660;2022-12-20T08:45:53;99904.81;;;0.88;75.57
77165;BME280;66140;50.280;18.660;2022-12-20T08:48:20;99858.00;;;0.70;75.03
77165;BME280;66140;50.280;18.660;2022-12-20T08:50:46;99887.41;;;0.84;75.88
77165;BME280;66140;50.280;18.660;2022-12-20T08:53:11;99890.00;;;0.89;75.19
77165;BME280;66140;50.280;18.660;2022-12-20T08:55:36;99893.34;;;0.97;74.82
77165;BME280;66140;50.280;18.660;2022-12-20T08:58:02;99870.03;;;0.83;75.25
77165;BME280;66140;50.280;18.660;2022-12-20T09:00:27;99847.41;;;0.82;74.63
77165;BME280;66140;50.280;18.660;2022-12-20T09:02:54;99875.03;;;1.01;74.46
77165;BME280;66140;50.280;18.660;2022-12-20T09:05:19;99875.75;;;1.12;73.88
77165;BME280;66140;50.280;18.660;2022-12-20T09:07:45;99848.91;;;1.01;74.21
77165;BME280;66140;50.280;18.660;2022-12-20T09:10:10;99848.75;;;1.10;74.91
77165;BME280;66140;50.280;18.660;2022-12-20T09:12:37;99857.38;;;1.18;74.46
77165;BME280;66140;50.280;18.660;2022-12-20T09:15:04;99867.81;;;1.18;74.19
77165;BME280;66140;50.280;18.660;2022-12-20T09:17:29;99828.81;;;1.05;73.82
77165;BME280;66140;50.280;18.660;2022-12-20T09:19:55;99841.00;;;1.06;75.00
77165;BME280;66140;50.280;18.660;2022-12-20T09:22:20;99861.72;;;1.18;74.50
77165;BME280;66140;50.280;18.660;2022-12-20T09:24:46;99862.53;;;1.23;73.45
77165;BME280;66140;50.280;18.660;2022-12-20T09:27:11;99860.78;;;1.24;73.05
77165;BME280;66140;50.280;18.660;2022-12-20T09:29:36;99836.56;;;1.09;73.19
77165;BME280;66140;50.280;18.660;2022-12-20T09:32:05;99822.59;;;1.15;73.49
77165;BME280;66140;50.280;18.660;2022-12-20T09:34:30;99829.28;;;1.33;73.44
77165;BME280;66140;50.280;18.660;2022-12-20T09:36:56;99823.97;;;1.37;72.26
77165;BME280;66140;50.280;18.660;2022-12-20T09:39:21;99812.47;;;1.47;72.95
77165;BME280;66140;50.280;18.660;2022-12-20T09:41:50;99817.56;;;1.58;72.83
77165;BME280;66140;50.280;18.660;2022-12-20T09:44:20;99815.72;;;1.63;73.03
77165;BME280;66140;50.280;18.660;2022-12-20T09:46:53;99808.72;;;1.65;71.73
77165;BME280;66140;50.280;18.660;2022-12-20T09:49:22;99809.44;;;1.73;72.33
77165;BME280;66140;50.280;18.660;2022-12-20T09:52:21;99819.88;;;1.76;71.45
77165;BME280;66140;50.280;18.660;2022-12-20T09:55:44;99826.94;;;1.71;71.91
77165;BME280;66140;50.280;18.660;2022-12-20T10:00:48;99829.66;;;1.65;72.81
77165;BME280;66140;50.280;18.660;2022-12-20T10:03:29;99819.41;;;1.51;73.37
77165;BME280;66140;50.280;18.660;2022-12-20T10:08:56;99828.16;;;1.47;72.99
77165;BME280;66140;50.280;18.660;2022-12-20T10:11:35;99842.06;;;1.51;71.96
77165;BME280;66140;50.280;18.660;2022-12-20T10:17:00;99807.31;;;1.43;73.46
77165;BME280;66140;50.280;18.660;2022-12-20T10:22:03;99788.28;;;1.35;72.69
77165;BME280;66140;50.280;18.660;2022-12-20T10:24:32;99780.44;;;1.35;73.00
77165;BME280;66140;50.280;18.660;2022-12-20T10:27:14;99759.59;;;1.32;73.60
77165;BME280;66140;50.280;18.660;2022-12-20T10:29:41;99750.97;;;1.27;73.42
77165;BME280;66140;50.280;18.660;2022-12-20T10:32:15;99762.31;;;1.26;73.45
77165;BME280;66140;50.280;18.660;2022-12-20T10:37:35;99776.25;;;1.25;73.98
77165;BME280;66140;50.280;18.660;2022-12-20T10:40:01;99765.81;;;1.23;73.50
77165;BME280;66140;50.280;18.660;2022-12-20T10:42:38;99770.91;;;1.32;72.64
77165;BME280;66140;50.280;18.660;2022-12-20T10:45:32;99743.91;;;1.32;72.38
77165;BME280;66140;50.280;18.660;2022-12-20T10:48:00;99746.44;;;1.35;72.98
77165;BME280;66140;50.280;18.660;2022-12-20T10:50:26;99774.94;;;1.53;73.37
77165;BME280;66140;50.280;18.660;2022-12-20T10:55:36;99756.69;;;1.48;73.07
77165;BME280;66140;50.280;18.660;2022-12-20T10:58:12;99746.28;;;1.47;73.64
77165;BME280;66140;50.280;18.660;2022-12-20T11:00:39;99735.75;;;1.50;73.12
77165;BME280;66140;50.280;18.660;2022-12-20T11:03:19;99745.06;;;1.66;72.39
77165;BME280;66140;50.280;18.660;2022-12-20T11:05:54;99738.00;;;1.71;72.79
77165;BME280;66140;50.280;18.660;2022-12-20T11:08:22;99731.75;;;1.78;71.11
77165;BME280;66140;50.280;18.660;2022-12-20T11:10:49;99746.19;;;1.99;70.72
77165;BME280;66140;50.280;18.660;2022-12-20T11:13:23;99748.53;;;2.13;70.75
77165;BME280;66140;50.280;18.660;2022-12-20T11:15:52;99759.94;;;2.10;69.50
77165;BME280;66140;50.280;18.660;2022-12-20T11:23:43;99730.34;;;2.07;70.70
77165;BME280;66140;50.280;18.660;2022-12-20T11:32:20;99730.72;;;1.87;70.89
77165;BME280;66140;50.280;18.660;2022-12-20T11:37:24;99704.00;;;1.70;70.60
77165;BME280;66140;50.280;18.660;2022-12-20T11:40:00;99735.94;;;1.88;72.97
77165;BME280;66140;50.280;18.660;2022-12-20T11:42:37;99730.69;;;1.88;72.11
77165;BME280;66140;50.280;18.660;2022-12-20T11:51:03;99722.22;;;1.74;72.43
77165;BME280;66140;50.280;18.660;2022-12-20T11:56:06;99712.00;;;1.60;73.16
77165;BME280;66140;50.280;18.660;2022-12-20T11:58:59;99727.69;;;1.62;73.50
77165;BME280;66140;50.280;18.660;2022-12-20T12:01:59;99724.19;;;1.63;72.23
77165;BME280;66140;50.280;18.660;2022-12-20T12:04:33;99698.19;;;1.54;71.72
77165;BME280;66140;50.280;18.660;2022-12-20T12:07:19;99687.84;;;1.48;73.34
77165;BME280;66140;50.280;18.660;2022-12-20T12:10:29;99712.81;;;1.66;73.04
77165;BME280;66140;50.280;18.660;2022-12-20T12:13:34;99711.84;;;1.71;72.97
77165;BME280;66140;50.280;18.660;2022-12-20T12:16:10;99698.03;;;1.63;72.09
77165;BME280;66140;50.280;18.660;2022-12-20T12:18:41;99674.75;;;1.49;72.21
77165;BME280;66140;50.280;18.660;2022-12-20T12:21:12;99705.75;;;1.69;72.57
77165;BME280;66140;50.280;18.660;2022-12-20T12:26:34;99677.34;;;1.51;72.14
77165;BME280;66140;50.280;18.660;2022-12-20T12:29:04;99688.44;;;1.64;71.80
77165;BME280;66140;50.280;18.660;2022-12-20T12:48:44;99678.25;;;1.48;73.10
77165;BME280;66140;50.280;18.660;2022-12-20T12:51:12;99701.72;;;1.53;72.97
77165;BME280;66140;50.280;18.660;2022-12-20T12:53:51;99703.47;;;1.51;73.42
77165;BME280;66140;50.280;18.660;2022-12-20T12:56:41;99681.03;;;1.41;73.64
77165;BME280;66140;50.280;18.660;2022-12-20T13:01:53;99688.78;;;1.44;74.17
77165;BME280;66140;50.280;18.660;2022-12-20T13:04:25;99671.69;;;1.25;72.85
77165;BME280;66140;50.280;18.660;2022-12-20T13:11:53;99687.25;;;1.34;72.72
77165;BME280;66140;50.280;18.660;2022-12-20T13:19:35;99709.94;;;1.30;74.70
77165;BME280;66140;50.280;18.660;2022-12-20T13:38:04;99683.66;;;0.87;75.65
77165;BME280;66140;50.280;18.660;2022-12-20T13:40:58;99671.56;;;0.80;75.80
77165;BME280;66140;50.280;18.660;2022-12-20T13:43:31;99693.22;;;0.87;75.82
77165;BME280;66140;50.280;18.660;2022-12-20T13:46:18;99677.66;;;0.79;76.30
77165;BME280;66140;50.280;18.660;2022-12-20T13:51:15;99651.72;;;0.68;76.21
77165;BME280;66140;50.280;18.660;2022-12-20T13:56:41;99695.78;;;0.90;76.72
77165;BME280;66140;50.280;18.660;2022-12-20T13:59:29;99677.47;;;0.91;75.31
77165;BME280;66140;50.280;18.660;2022-12-20T14:01:58;99658.63;;;0.72;75.89
77165;BME280;66140;50.280;18.660;2022-12-20T14:04:25;99664.75;;;0.70;75.76
77165;BME280;66140;50.280;18.660;2022-12-20T14:06:54;99650.75;;;0.74;75.81
77165;BME280;66140;50.280;18.660;2022-12-20T14:09:44;99674.22;;;0.77;76.03
77165;BME280;66140;50.280;18.660;2022-12-20T14:12:15;99694.03;;;0.90;75.40
77165;BME280;66140;50.280;18.660;2022-12-20T14:14:49;99699.31;;;0.89;75.74
77165;BME280;66140;50.280;18.660;2022-12-20T14:25:36;99660.34;;;0.72;77.00
77165;BME280;66140;50.280;18.660;2022-12-20T14:28:04;99657.72;;;0.75;76.02
77165;BME280;66140;50.280;18.660;2022-12-20T14:30:41;99658.53;;;0.77;76.03
77165;BME280;66140;50.280;18.660;2022-12-20T14:33:24;99645.75;;;0.60;76.82
77165;BME280;66140;50.280;18.660;2022-12-20T14:35:52;99654.34;;;0.67;76.11
77165;BME280;66140;50.280;18.660;2022-12-20T14:38:28;99654.41;;;0.64;76.29
77165;BME280;66140;50.280;18.660;2022-12-20T14:40:54;99646.63;;;0.61;77.22
77165;BME280;66140;50.280;18.660;2022-12-20T14:43:31;99641.31;;;0.65;77.00
77165;BME280;66140;50.280;18.660;2022-12-20T14:46:16;99649.09;;;0.70;76.86
77165;BME280;66140;50.280;18.660;2022-12-20T14:48:42;99621.53;;;0.51;77.60
77165;BME280;66140;50.280;18.660;2022-12-20T14:51:08;99611.13;;;0.48;77.69
77165;BME280;66140;50.280;18.660;2022-12-20T14:53:34;99603.41;;;0.40;77.54
77165;BME280;66140;50.280;18.660;2022-12-20T14:56:01;99640.50;;;0.62;78.15
77165;BME280;66140;50.280;18.660;2022-12-20T14:58:28;99649.25;;;0.58;77.98
77165;BME280;66140;50.280;18.660;2022-12-20T15:01:02;99632.06;;;0.45;77.66
77165;BME280;66140;50.280;18.660;2022-12-20T15:03:28;99638.13;;;0.45;77.86
77165;BME280;66140;50.280;18.660;2022-12-20T15:05:58;99639.94;;;0.42;77.43
77165;BME280;66140;50.280;18.660;2022-12-20T15:08:31;99631.31;;;0.38;77.53
77165;BME280;66140;50.280;18.660;2022-12-20T15:11:09;99638.19;;;0.42;77.88
77165;BME280;66140;50.280;18.660;2022-12-20T15:13:43;99640.97;;;0.31;78.56
77165;BME280;66140;50.280;18.660;2022-12-20T15:16:21;99679.00;;;0.49;78.39
77165;BME280;66140;50.280;18.660;2022-12-20T15:18:52;99673.78;;;0.48;78.03
77165;BME280;66140;50.280;18.660;2022-12-20T15:21:35;99655.66;;;0.37;77.54
77165;BME280;66140;50.280;18.660;2022-12-20T15:24:03;99634.97;;;0.23;78.79
77165;BME280;66140;50.280;18.660;2022-12-20T15:26:32;99627.16;;;0.23;77.71
77165;BME280;66140;50.280;18.660;2022-12-20T15:28:58;99661.78;;;0.34;78.52
77165;BME280;66140;50.280;18.660;2022-12-20T15:31:24;99653.25;;;0.23;77.86
77165;BME280;66140;50.280;18.660;2022-12-20T15:33:51;99635.97;;;0.13;78.66
77165;BME280;66140;50.280;18.660;2022-12-20T15:36:24;99621.31;;;0.06;78.33
77165;BME280;66140;50.280;18.660;2022-12-20T15:38:54;99624.72;;;0.11;78.72
77165;BME280;66140;50.280;18.660;2022-12-20T15:41:26;99626.47;;;0.11;79.15
77165;BME280;66140;50.280;18.660;2022-12-20T15:44:04;99606.56;;;0.02;79.36
77165;BME280;66140;50.280;18.660;2022-12-20T15:46:31;99597.16;;;-0.10;79.77
77165;BME280;66140;50.280;18.660;2022-12-20T15:48:57;99589.22;;;-0.01;79.19
77165;BME280;66140;50.280;18.660;2022-12-20T15:53:53;99601.44;;;-0.04;80.31
77165;BME280;66140;50.280;18.660;2022-12-20T15:56:21;99600.56;;;-0.06;79.52
77165;BME280;66140;50.280;18.660;2022-12-20T15:58:47;99629.97;;;0.08;79.60
77165;BME280;66140;50.280;18.660;2022-12-20T16:01:35;99611.84;;;-0.01;79.87
77165;BME280;66140;50.280;18.660;2022-12-20T16:04:02;99604.88;;;-0.02;79.88
77165;BME280;66140;50.280;18.660;2022-12-20T16:06:30;99606.66;;;-0.04;79.80
77165;BME280;66140;50.280;18.660;2022-12-20T16:08:55;99605.06;;;-0.14;80.12
77165;BME280;66140;50.280;18.660;2022-12-20T16:11:23;99619.59;;;0.05;79.14
77165;BME280;66140;50.280;18.660;2022-12-20T16:13:52;99607.56;;;-0.07;79.07
77165;BME280;66140;50.280;18.660;2022-12-20T16:16:20;99587.69;;;-0.18;80.17
77165;BME280;66140;50.280;18.660;2022-12-20T16:18:46;99585.94;;;-0.16;80.01
77165;BME280;66140;50.280;18.660;2022-12-20T16:21:17;99581.69;;;-0.22;79.80
77165;BME280;66140;50.280;18.660;2022-12-20T16:23:43;99585.91;;;-0.13;79.97
77165;BME280;66140;50.280;18.660;2022-12-20T16:26:16;99588.53;;;-0.13;79.39
77165;BME280;66140;50.280;18.660;2022-12-20T16:28:44;99619.75;;;-0.07;80.29
77165;BME280;66140;50.280;18.660;2022-12-20T16:31:31;99610.34;;;-0.20;80.09
77165;BME280;66140;50.280;18.660;2022-12-20T16:33:59;99594.78;;;-0.26;79.82
77165;BME280;66140;50.280;18.660;2022-12-20T16:36:27;99580.03;;;-0.29;80.45
77165;BME280;66140;50.280;18.660;2022-12-20T16:38:56;99578.22;;;-0.25;79.93
77165;BME280;66140;50.280;18.660;2022-12-20T16:41:27;99578.34;;;-0.33;81.22
77165;BME280;66140;50.280;18.660;2022-12-20T16:43:55;99561.06;;;-0.42;80.78
77165;BME280;66140;50.280;18.660;2022-12-20T16:46:23;99567.09;;;-0.36;80.99
77165;BME280;66140;50.280;18.660;2022-12-20T16:48:50;99560.91;;;-0.29;80.41
77165;BME280;66140;50.280;18.660;2022-12-20T16:51:32;99556.63;;;-0.33;80.36
77165;BME280;66140;50.280;18.660;2022-12-20T16:54:00;99578.97;;;-0.14;80.71
77165;BME280;66140;50.280;18.660;2022-12-20T16:56:27;99558.22;;;-0.23;80.57
77165;BME280;66140;50.280;18.660;2022-12-20T16:58:52;99604.00;;;-0.01;80.49
77165;BME280;66140;50.280;18.660;2022-12-20T17:01:25;99602.22;;;0.01;80.62
77165;BME280;66140;50.280;18.660;2022-12-20T17:03:52;99586.66;;;-0.05;80.15
77165;BME280;66140;50.280;18.660;2022-12-20T17:06:18;99599.75;;;-0.08;80.63
77165;BME280;66140;50.280;18.660;2022-12-20T17:08:45;99618.69;;;0.06;79.87
77165;BME280;66140;50.280;18.660;2022-12-20T17:13:39;99622.13;;;0.08;80.10
77165;BME280;66140;50.280;18.660;2022-12-20T17:16:09;99603.16;;;-0.03;79.79
77165;BME280;66140;50.280;18.660;2022-12-20T17:18:34;99622.16;;;0.07;79.87
77165;BME280;66140;50.280;18.660;2022-12-20T17:21:01;99613.56;;;0.00;79.43
77165;BME280;66140;50.280;18.660;2022-12-20T17:23:32;99584.94;;;-0.06;80.41
77165;BME280;66140;50.280;18.660;2022-12-20T17:26:02;99565.00;;;-0.12;80.74
77165;BME280;66140;50.280;18.660;2022-12-20T17:28:27;99540.75;;;-0.18;80.36
77165;BME280;66140;50.280;18.660;2022-12-20T17:31:28;99559.00;;;-0.18;80.15
77165;BME280;66140;50.280;18.660;2022-12-20T17:33:51;99589.34;;;-0.10;80.74
77165;BME280;66140;50.280;18.660;2022-12-20T17:36:17;99591.84;;;-0.02;79.78
77165;BME280;66140;50.280;18.660;2022-12-20T17:38:43;99553.78;;;-0.15;80.05
77165;BME280;66140;50.280;18.660;2022-12-20T17:41:34;99584.03;;;-0.02;80.18
77165;BME280;66140;50.280;18.660;2022-12-20T17:44:02;99565.94;;;-0.16;79.42
77165;BME280;66140;50.280;18.660;2022-12-20T17:46:28;99568.47;;;-0.11;79.68
77165;BME280;66140;50.280;18.660;2022-12-20T17:48:54;99569.34;;;-0.09;80.17
77165;BME280;66140;50.280;18.660;2022-12-20T17:51:27;99573.53;;;0.01;80.48
77165;BME280;66140;50.280;18.660;2022-12-20T17:53:57;99550.38;;;-0.20;80.28
77165;BME280;66140;50.280;18.660;2022-12-20T17:56:28;99557.25;;;-0.16;79.87
77165;BME280;66140;50.280;18.660;2022-12-20T17:58:58;99542.56;;;-0.23;80.05
77165;BME280;66140;50.280;18.660;2022-12-20T18:01:27;99565.88;;;-0.11;79.96
77165;BME280;66140;50.280;18.660;2022-12-20T18:03:55;99564.16;;;-0.12;80.51
77165;BME280;66140;50.280;18.660;2022-12-20T18:06:22;99559.88;;;-0.18;79.96
77165;BME280;66140;50.280;18.660;2022-12-20T18:08:55;99555.47;;;-0.13;80.50
77165;BME280;66140;50.280;18.660;2022-12-20T18:11:22;99543.63;;;-0.36;79.64
77165;BME280;66140;50.280;18.660;2022-12-20T18:13:50;99569.44;;;-0.18;80.63
77165;BME280;66140;50.280;18.660;2022-12-20T18:16:19;99549.59;;;-0.28;80.18
77165;BME280;66140;50.280;18.660;2022-12-20T18:18:47;99556.63;;;-0.33;80.77
77165;BME280;66140;50.280;18.660;2022-12-20T18:21:15;99554.03;;;-0.33;80.51
77165;BME280;66140;50.280;18.660;2022-12-20T18:23:45;99555.84;;;-0.38;80.93
77165;BME280;66140;50.280;18.660;2022-12-20T18:28:39;99546.44;;;-0.52;80.98
77165;BME280;66140;50.280;18.660;2022-12-20T18:31:07;99542.88;;;-0.46;80.33
77165;BME280;66140;50.280;18.660;2022-12-20T18:33:33;99562.81;;;-0.41;80.74
77165;BME280;66140;50.280;18.660;2022-12-20T18:36:04;99538.66;;;-0.56;80.79
77165;BME280;66140;50.280;18.660;2022-12-20T18:38:31;99562.03;;;-0.50;81.24
77165;BME280;66140;50.280;18.660;2022-12-20T18:41:01;99588.94;;;-0.48;81.30
77165;BME280;66140;50.280;18.660;2022-12-20T18:43:29;99552.63;;;-0.60;81.30
77165;BME280;66140;50.280;18.660;2022-12-20T18:45:56;99562.91;;;-0.50;81.08
77165;BME280;66140;50.280;18.660;2022-12-20T18:48:24;99555.09;;;-0.51;81.16
77165;BME280;66140;50.280;18.660;2022-12-20T18:50:50;99568.03;;;-0.42;80.87
77165;BME280;66140;50.280;18.660;2022-12-20T18:53:15;99536.09;;;-0.59;80.42
77165;BME280;66140;50.280;18.660;2022-12-20T18:55:41;99556.03;;;-0.55;81.42
77165;BME280;66140;50.280;18.660;2022-12-20T18:58:06;99538.72;;;-0.59;81.47
77165;BME280;66140;50.280;18.660;2022-12-20T19:00:38;99543.00;;;-0.57;80.88
77165;BME280;66140;50.280;18.660;2022-12-20T19:03:03;99566.34;;;-0.46;80.93
77165;BME280;66140;50.280;18.660;2022-12-20T19:05:31;99529.16;;;-0.59;80.97
77165;BME280;66140;50.280;18.660;2022-12-20T19:07:57;99532.66;;;-0.63;81.20
77165;BME280;66140;50.280;18.660;2022-12-20T19:10:23;99522.22;;;-0.63;81.36
77165;BME280;66140;50.280;18.660;2022-12-20T19:12:48;99515.38;;;-0.70;81.09
77165;BME280;66140;50.280;18.660;2022-12-20T19:15:14;99499.81;;;-0.74;80.75
77165;BME280;66140;50.280;18.660;2022-12-20T19:17:39;99511.81;;;-0.63;80.51
77165;BME280;66140;50.280;18.660;2022-12-20T19:20:05;99512.66;;;-0.61;81.14
77165;BME280;66140;50.280;18.660;2022-12-20T19:22:31;99502.25;;;-0.64;81.04
77165;BME280;66140;50.280;18.660;2022-12-20T19:24:57;99500.59;;;-0.68;81.58
77165;BME280;66140;50.280;18.660;2022-12-20T19:27:23;99484.19;;;-0.76;81.20
77165;BME280;66140;50.280;18.660;2022-12-20T19:29:48;99516.84;;;-0.48;80.45
77165;BME280;66140;50.280;18.660;2022-12-20T19:32:16;99483.16;;;-0.63;81.05
77165;BME280;66140;50.280;18.660;2022-12-20T19:34:45;99500.31;;;-0.45;80.72
77165;BME280;66140;50.280;18.660;2022-12-20T19:37:10;99525.25;;;-0.27;80.17
77165;BME280;66140;50.280;18.660;2022-12-20T19:39:39;99502.84;;;-0.39;80.61
77165;BME280;66140;50.280;18.660;2022-12-20T19:42:05;99515.72;;;-0.28;79.32
77165;BME280;66140;50.280;18.660;2022-12-20T19:44:30;99481.03;;;-0.35;79.54
77165;BME280;66140;50.280;18.660;2022-12-20T19:46:56;99505.91;;;-0.11;80.12
77165;BME280;66140;50.280;18.660;2022-12-20T19:49:21;99474.94;;;-0.32;79.85
77165;BME280;66140;50.280;18.660;2022-12-20T19:51:48;99498.19;;;-0.19;80.08
77165;BME280;66140;50.280;18.660;2022-12-20T19:54:14;99504.16;;;-0.12;79.96
77165;BME280;66140;50.280;18.660;2022-12-20T19:56:39;99471.31;;;-0.25;79.28